ストックホルム/アーランダ の空港の天気 - METARとTAF

ストックホルム・アーランダ空港 ( ESSA / ARN ) - スウェーデン ストックホルム
飛行場実況気象(Metar)
観測時間05/23 20:50 CEST (05/23 18:50 UTC)
風向・風速南東 3m/s
視程10km以上
天気現象
なし
気温14℃
湿度88%
気圧1011hPa
METARESSA 231850Z 13006KT CAVOK 14/12 Q1011 NOSIG
過去の天気等 Google飛行場航空写真 Wunderground天気予報

過去48時間のMETAR

飛行場予報(TAF)
発表時間: 5/23 19:30 CEST (5/23 17:30 UTC)
予報対象時間: 23日20時 CEST ~ 24日20時 CEST
風向・風速不定 1m/s
視程10km以上
なし
24日16時 CEST から 確率 40% で
天気現象しゅう雨
全天の8割程度の積乱雲 雲底高度 910m
TAF ESSA 231730Z 2318/2418 VRB02KT CAVOK
PROB40 2414/2417 SHRA BKN030CB